Time;durP1;ratioP1;P1;durP2;ratioP2;P2;SDS_P1;SDS_P2;PMS_P1;PMS_P2;Temp;Humidity;BMP_temperature;BMP_pressure;BME280_temperature;BME280_humidity;BME280_pressure;Samples;Min_cycle;Max_cycle;Signal;HPM_P1;HPM_P2
2021/12/25 00:00:18;;;;;;;8.18;7.55;;;8.00;99.90;;;;;;4933438;29;20267;-69
2021/12/25 00:02:47;;;;;;;9.70;8.85;;;8.20;99.90;;;;;;4933552;29;20231;-69
2021/12/25 00:05:15;;;;;;;7.65;7.03;;;8.30;99.90;;;;;;4933980;29;20204;-68
2021/12/25 00:07:43;;;;;;;9.98;7.90;;;8.40;99.90;;;;;;4932427;29;20299;-68
2021/12/25 00:10:11;;;;;;;7.68;7.03;;;8.40;99.90;;;;;;4934751;29;20385;-69
2021/12/25 00:12:39;;;;;;;9.05;8.15;;;8.40;99.90;;;;;;4942080;29;20227;-69
2021/12/25 00:15:07;;;;;;;8.73;7.88;;;8.50;99.90;;;;;;4935193;29;20669;-68
2021/12/25 00:17:36;;;;;;;8.35;7.50;;;8.50;99.90;;;;;;4933609;29;20259;-70
2021/12/25 00:20:05;;;;;;;8.18;7.35;;;8.60;99.90;;;;;;4937445;29;20306;-69
2021/12/25 00:22:33;;;;;;;7.03;6.53;;;8.60;99.90;;;;;;4936904;29;20266;-70
2021/12/25 00:25:01;;;;;;;9.27;7.55;;;8.60;99.90;;;;;;4937291;29;20231;-70
2021/12/25 00:30:19;;;;;;;8.23;7.32;;;8.50;99.90;;;;;;4934825;29;20318;-70
2021/12/25 00:32:54;;;;;;;7.47;6.88;;;8.60;99.90;;;;;;4936769;29;20227;-70
2021/12/25 00:35:22;;;;;;;8.38;7.68;;;8.50;99.90;;;;;;4937223;29;20282;-69
2021/12/25 00:37:50;;;;;;;9.13;8.23;;;8.40;99.90;;;;;;4937125;29;20227;-69
2021/12/25 00:40:18;;;;;;;9.95;9.05;;;8.30;99.90;;;;;;4932996;29;20279;-70
2021/12/25 00:42:47;;;;;;;8.00;7.22;;;8.40;99.90;;;;;;4921145;29;20275;-69
2021/12/25 00:45:15;;;;;;;7.90;7.30;;;8.50;99.90;;;;;;4927974;29;20203;-70
2021/12/25 00:47:43;;;;;;;7.30;6.70;;;8.60;99.90;;;;;;4929364;29;20235;-70
2021/12/25 00:50:13;;;;;;;8.98;8.07;;;8.70;99.90;;;;;;4936649;29;20250;-69
2021/12/25 00:52:41;;;;;;;8.25;7.53;;;8.70;99.90;;;;;;4936571;29;20256;-70
2021/12/25 00:55:10;;;;;;;7.28;6.68;;;8.80;99.90;;;;;;4936806;29;20211;-69
2021/12/25 00:57:39;;;;;;;6.60;6.00;;;8.90;99.90;;;;;;4936767;29;20231;-70
2021/12/25 01:00:11;;;;;;;6.53;6.00;;;8.90;99.90;;;;;;4936474;29;20290;-70
2021/12/25 01:02:41;;;;;;;7.30;6.38;;;8.90;99.90;;;;;;4936102;29;20244;-69
2021/12/25 01:05:10;;;;;;;6.38;5.32;;;8.90;99.90;;;;;;4936238;29;20204;-69
2021/12/25 01:07:40;;;;;;;5.88;5.35;;;9.00;99.90;;;;;;4936102;29;20227;-70
2021/12/25 01:10:13;;;;;;;5.78;5.38;;;9.00;99.90;;;;;;4936160;29;20310;-70
2021/12/25 01:12:54;;;;;;;7.30;6.70;;;8.90;99.90;;;;;;4936105;29;20196;-69
2021/12/25 01:15:30;;;;;;;7.90;7.30;;;8.90;99.90;;;;;;4936180;29;20287;-70
2021/12/25 01:24:12;;;;;;;8.63;7.85;;;8.40;99.90;;;;;;4930742;29;20302;-70
2021/12/25 01:29:42;;;;;;;8.38;7.68;;;8.50;99.90;;;;;;4935391;29;20247;-69
2021/12/25 01:32:53;;;;;;;8.50;7.70;;;8.50;99.90;;;;;;4935576;29;20275;-68
2021/12/25 01:35:30;;;;;;;7.43;6.72;;;8.30;99.90;;;;;;4935694;29;20227;-68
2021/12/25 01:38:05;;;;;;;7.93;6.43;;;8.10;99.90;;;;;;4936146;29;20283;-69
2021/12/25 01:40:54;;;;;;;8.52;7.70;;;8.10;99.90;;;;;;4935982;29;20279;-70
2021/12/25 01:48:58;;;;;;;7.53;6.90;;;8.50;99.90;;;;;;4896477;29;20205;-69
2021/12/25 01:51:26;;;;;;;7.95;7.10;;;8.50;99.90;;;;;;4916879;29;20204;-69
2021/12/25 01:53:54;;;;;;;7.00;6.38;;;8.60;99.90;;;;;;4918838;29;20251;-70
2021/12/25 01:56:23;;;;;;;7.70;7.10;;;8.60;99.90;;;;;;4935671;29;20220;-69
2021/12/25 01:58:52;;;;;;;8.10;7.30;;;8.60;99.90;;;;;;4935467;29;20662;-69
2021/12/25 02:01:20;;;;;;;7.90;7.10;;;8.60;99.90;;;;;;4935512;29;20256;-69
2021/12/25 02:03:48;;;;;;;7.10;6.50;;;8.50;99.90;;;;;;4934776;29;20318;-69
2021/12/25 02:06:16;;;;;;;7.45;6.82;;;8.50;99.90;;;;;;4935400;29;20684;-69
2021/12/25 02:08:45;;;;;;;6.82;6.28;;;8.50;99.90;;;;;;4935491;29;20234;-69
2021/12/25 02:11:13;;;;;;;7.80;6.60;;;8.30;99.90;;;;;;4935415;29;20627;-69
2021/12/25 02:13:45;;;;;;;7.82;7.15;;;8.30;99.90;;;;;;4934687;29;20267;-69
2021/12/25 02:16:17;;;;;;;6.55;5.95;;;8.40;99.90;;;;;;4930213;29;20201;-70
2021/12/25 02:18:59;;;;;;;6.63;6.13;;;8.50;99.90;;;;;;4933231;29;20204;-70
2021/12/25 02:21:35;;;;;;;6.60;6.03;;;8.60;99.90;;;;;;4935273;29;20231;-69
2021/12/25 02:24:05;;;;;;;5.78;5.28;;;8.70;99.90;;;;;;4934613;29;20310;-71
2021/12/25 02:26:34;;;;;;;5.90;5.45;;;8.70;99.90;;;;;;4935201;29;20632;-70
2021/12/25 02:29:02;;;;;;;6.72;6.13;;;8.80;99.90;;;;;;4935181;29;20227;-70
2021/12/25 02:31:30;;;;;;;8.63;5.70;;;8.80;99.90;;;;;;4934968;29;20633;-70
2021/12/25 02:33:58;;;;;;;7.05;6.45;;;8.80;99.90;;;;;;4934104;29;20224;-70
2021/12/25 02:36:26;;;;;;;7.18;6.05;;;8.70;99.90;;;;;;4934598;29;20235;-70
2021/12/25 02:38:55;;;;;;;7.00;6.38;;;8.60;99.90;;;;;;4934859;29;20223;-71
2021/12/25 02:41:23;;;;;;;7.55;6.95;;;8.60;99.90;;;;;;4935010;29;20282;-70
2021/12/25 02:43:51;;;;;;;6.95;6.45;;;8.60;99.90;;;;;;4934296;29;20306;-70
2021/12/25 02:46:19;;;;;;;7.63;6.82;;;8.50;99.90;;;;;;4929170;29;20292;-70
2021/12/25 02:48:47;;;;;;;7.55;6.80;;;8.50;99.90;;;;;;4932571;29;20251;-67
2021/12/25 02:51:15;;;;;;;7.00;6.35;;;8.50;99.90;;;;;;4931961;29;20259;-70
2021/12/25 02:53:43;;;;;;;5.47;5.07;;;8.60;99.90;;;;;;4925757;29;20229;-70
2021/12/25 02:56:12;;;;;;;6.45;5.85;;;8.70;99.90;;;;;;4931749;29;20231;-70
2021/12/25 02:58:40;;;;;;;7.32;6.72;;;8.70;99.90;;;;;;4934652;29;20220;-70
2021/12/25 03:01:10;;;;;;;6.55;6.05;;;8.80;99.90;;;;;;4934328;29;20330;-68
2021/12/25 03:03:38;;;;;;;6.90;6.38;;;8.80;99.90;;;;;;4933903;29;20216;-67
2021/12/25 03:06:09;;;;;;;6.60;6.00;;;8.80;99.90;;;;;;4934696;29;20231;-68
2021/12/25 03:08:37;;;;;;;6.60;6.07;;;8.80;99.90;;;;;;4934561;29;20247;-68
2021/12/25 03:11:07;;;;;;;6.60;6.10;;;8.80;99.90;;;;;;4934075;29;20247;-68
2021/12/25 03:13:44;;;;;;;8.18;7.38;;;8.70;99.90;;;;;;4934056;29;20203;-68
2021/12/25 03:16:14;;;;;;;6.25;5.75;;;8.70;99.90;;;;;;4929687;29;20204;-68
2021/12/25 03:18:47;;;;;;;6.25;5.57;;;8.70;99.90;;;;;;4931403;29;20299;-68
2021/12/25 03:21:18;;;;;;;5.65;5.25;;;8.70;99.90;;;;;;4934370;29;20200;-68
2021/12/25 03:23:47;;;;;;;6.53;5.90;;;8.70;99.90;;;;;;4933861;29;20304;-68
2021/12/25 03:26:15;;;;;;;5.70;5.20;;;8.70;99.90;;;;;;4934268;29;20219;-68
2021/12/25 03:28:46;;;;;;;6.10;5.63;;;8.70;99.90;;;;;;4934000;29;20238;-68
2021/12/25 03:31:18;;;;;;;6.40;5.80;;;8.60;99.90;;;;;;4934423;29;20668;-67
2021/12/25 03:33:47;;;;;;;6.32;5.72;;;8.60;99.90;;;;;;4933750;29;20238;-66
2021/12/25 03:36:16;;;;;;;5.93;5.32;;;8.60;99.90;;;;;;4934279;29;20220;-68
2021/12/25 03:38:44;;;;;;;6.15;5.55;;;8.80;99.90;;;;;;4934154;29;20275;-66
2021/12/25 03:41:12;;;;;;;6.22;5.72;;;8.80;99.90;;;;;;4933956;29;20223;-68
2021/12/25 03:43:42;;;;;;;5.82;5.43;;;8.90;99.90;;;;;;4933815;29;20252;-68
2021/12/25 03:46:13;;;;;;;6.00;5.50;;;8.80;99.90;;;;;;4933195;29;20688;-68
2021/12/25 03:49:03;;;;;;;5.20;4.80;;;8.80;99.90;;;;;;4934892;29;20204;-67
2021/12/25 03:59:58;;;;;;;4.28;3.88;;;8.10;99.90;;;;;;4929020;29;20810;-69
2021/12/25 04:02:34;;;;;;;4.70;4.30;;;8.00;99.90;;;;;;4918820;29;20303;-68
2021/12/25 04:05:04;;;;;;;4.07;3.38;;;7.80;99.90;;;;;;4931377;29;20723;-69
2021/12/25 04:10:27;;;;;;;5.03;4.57;;;7.50;99.90;;;;;;4922722;29;20836;-68
2021/12/25 04:12:55;;;;;;;5.47;5.07;;;7.50;99.90;;;;;;4937249;29;20300;-68
2021/12/25 04:15:23;;;;;;;7.15;6.25;;;7.40;99.90;;;;;;4937325;29;20295;-68
2021/12/25 04:17:52;;;;;;;5.28;4.72;;;7.30;99.90;;;;;;4929448;29;20299;-68
2021/12/25 04:20:20;;;;;;;7.07;6.40;;;7.10;99.90;;;;;;4937309;29;20224;-68
2021/12/25 04:22:54;;;;;;;6.70;6.07;;;7.10;99.90;;;;;;4936896;29;20235;-69
2021/12/25 04:25:27;;;;;;;7.43;6.82;;;7.10;99.90;;;;;;4936957;29;20200;-68
2021/12/25 04:27:58;;;;;;;6.70;6.20;;;7.00;99.90;;;;;;4937460;29;20279;-67
2021/12/25 04:30:34;;;;;;;8.25;7.55;;;7.10;99.90;;;;;;4937240;29;20256;-68
2021/12/25 04:42:37;;;;;;;7.53;6.90;;;7.20;99.90;;;;;;4936942;29;20204;-69
2021/12/25 04:50:15;;;;;;;16.90;15.20;;;6.60;99.90;;;;;;4917909;29;20659;-69
2021/12/25 05:03:50;;;;;;;18.60;16.65;;;6.40;99.90;;;;;;4923114;29;20216;-67
2021/12/25 05:06:22;;;;;;;19.95;17.95;;;6.40;99.90;;;;;;4936506;29;20255;-68
2021/12/25 05:08:50;;;;;;;20.10;17.17;;;6.40;99.90;;;;;;4936559;29;20672;-68
2021/12/25 05:11:19;;;;;;;18.50;16.77;;;6.40;99.90;;;;;;4936478;29;20685;-68
2021/12/25 05:13:51;;;;;;;17.67;15.98;;;6.40;99.90;;;;;;4936341;29;20661;-68
2021/12/25 05:16:19;;;;;;;16.58;14.88;;;6.40;99.90;;;;;;4930800;29;20292;-68
2021/12/25 05:18:47;;;;;;;18.65;16.70;;;6.40;99.90;;;;;;4934378;29;20196;-68
2021/12/25 05:21:15;;;;;;;19.98;17.90;;;6.30;99.90;;;;;;4936566;29;20625;-68
2021/12/25 05:23:45;;;;;;;19.85;17.73;;;6.30;99.90;;;;;;4935921;29;20216;-68
2021/12/25 05:26:13;;;;;;;20.95;17.73;;;6.20;99.90;;;;;;4936138;29;20287;-68
2021/12/25 05:28:43;;;;;;;18.02;16.30;;;6.20;99.90;;;;;;4936267;29;20700;-68
2021/12/25 05:31:13;;;;;;;18.58;16.77;;;6.20;99.90;;;;;;4936236;29;20291;-68
2021/12/25 05:33:42;;;;;;;21.38;19.10;;;6.20;99.90;;;;;;4935899;29;20283;-68
2021/12/25 05:36:10;;;;;;;18.75;16.77;;;6.20;99.90;;;;;;4935952;29;20203;-68
2021/12/25 05:38:38;;;;;;;18.45;16.67;;;6.10;99.90;;;;;;4935958;29;20200;-68
2021/12/25 05:41:07;;;;;;;17.98;16.00;;;6.20;99.90;;;;;;4935833;29;20246;-67
2021/12/25 05:43:35;;;;;;;16.98;15.18;;;6.10;99.90;;;;;;4935835;29;20290;-67
2021/12/25 05:46:03;;;;;;;18.67;16.67;;;6.20;99.90;;;;;;4939988;29;20649;-68
2021/12/25 05:48:35;;;;;;;18.77;16.92;;;6.10;99.90;;;;;;4946454;29;20668;-68
2021/12/25 05:51:03;;;;;;;28.55;17.20;;;6.20;99.90;;;;;;4946955;29;20238;-68
2021/12/25 05:53:31;;;;;;;19.58;17.50;;;6.30;99.90;;;;;;4954718;29;20334;-68
2021/12/25 05:55:59;;;;;;;16.85;15.15;;;6.30;99.90;;;;;;4954848;29;20282;-68
2021/12/25 05:58:28;;;;;;;17.02;15.32;;;6.30;99.90;;;;;;4950862;29;20682;-67
2021/12/25 06:00:56;;;;;;;16.75;15.10;;;6.40;99.90;;;;;;4935515;29;20260;-68
2021/12/25 06:03:25;;;;;;;18.48;16.08;;;6.50;99.90;;;;;;4934312;29;20615;-68
2021/12/25 06:05:52;;;;;;;16.55;15.00;;;6.50;99.90;;;;;;4927143;29;20615;-66
2021/12/25 06:08:21;;;;;;;16.65;13.80;;;6.40;99.90;;;;;;4920282;29;20229;-66
2021/12/25 06:10:48;;;;;;;14.77;13.27;;;6.40;99.90;;;;;;4923946;29;20308;-67
2021/12/25 06:13:20;;;;;;;16.92;14.30;;;6.30;99.90;;;;;;4933545;29;20242;-67
2021/12/25 06:15:51;;;;;;;14.57;12.68;;;6.20;99.90;;;;;;4932237;29;20208;-66
2021/12/25 06:18:19;;;;;;;15.93;12.55;;;6.20;99.90;;;;;;4932337;29;20224;-66
2021/12/25 06:20:48;;;;;;;15.38;13.60;;;6.10;99.90;;;;;;4917842;29;20240;-67
2021/12/25 06:23:16;;;;;;;12.65;11.35;;;6.20;99.90;;;;;;4931401;29;20228;-67
2021/12/25 06:25:44;;;;;;;10.88;9.73;;;6.00;99.90;;;;;;4933258;29;20252;-67
2021/12/25 06:28:11;;;;;;;12.45;10.73;;;5.90;99.90;;;;;;4933228;29;20267;-67
2021/12/25 06:30:41;;;;;;;10.50;9.38;;;5.90;99.90;;;;;;4933066;29;20644;-67
2021/12/25 06:33:10;;;;;;;9.90;8.88;;;5.90;99.90;;;;;;4932740;29;20295;-68
2021/12/25 06:35:38;;;;;;;9.40;8.10;;;5.70;99.90;;;;;;4933185;29;20220;-69
2021/12/25 06:38:06;;;;;;;8.70;8.00;;;5.60;99.90;;;;;;4915509;29;20216;-69
2021/12/25 06:40:34;;;;;;;12.10;8.55;;;5.60;99.90;;;;;;4915202;29;20736;-69
2021/12/25 06:43:02;;;;;;;7.57;6.93;;;5.50;99.90;;;;;;4915099;29;20225;-69
2021/12/25 06:45:31;;;;;;;7.95;7.25;;;5.50;99.90;;;;;;4917720;29;20248;-69
2021/12/25 06:47:59;;;;;;;7.10;6.50;;;5.40;99.90;;;;;;4930991;29;20665;-69
2021/12/25 06:50:29;;;;;;;6.07;5.57;;;5.50;99.90;;;;;;4927570;29;20255;-66
2021/12/25 06:52:56;;;;;;;6.30;5.75;;;5.40;99.90;;;;;;4932505;29;20239;-67
2021/12/25 06:55:25;;;;;;;5.70;5.25;;;5.40;99.90;;;;;;4918378;29;20201;-68
2021/12/25 06:57:55;;;;;;;5.68;4.35;;;5.30;99.90;;;;;;4917455;29;20237;-68
2021/12/25 07:00:23;;;;;;;4.97;4.57;;;5.30;99.90;;;;;;4931669;29;20676;-69
2021/12/25 07:02:51;;;;;;;5.70;5.20;;;5.30;99.90;;;;;;4931204;29;20255;-69
2021/12/25 07:05:19;;;;;;;4.97;4.57;;;5.20;99.90;;;;;;4919290;29;20255;-68
2021/12/25 07:07:52;;;;;;;5.50;5.00;;;5.20;99.90;;;;;;4926334;29;20208;-68
2021/12/25 07:10:21;;;;;;;5.00;4.60;;;5.20;99.90;;;;;;4932403;29;20760;-68
2021/12/25 07:12:53;;;;;;;5.03;4.30;;;5.20;99.90;;;;;;4914229;29;20268;-67
2021/12/25 07:15:21;;;;;;;4.35;3.95;;;5.20;99.90;;;;;;4918349;29;20796;-69
2021/12/25 07:17:49;;;;;;;3.95;3.60;;;5.20;99.90;;;;;;4928462;29;20250;-68
2021/12/25 07:20:17;;;;;;;4.75;4.35;;;5.10;99.90;;;;;;4914251;29;20272;-66
2021/12/25 07:22:45;;;;;;;3.63;3.33;;;5.20;99.90;;;;;;4914424;29;20204;-65
2021/12/25 07:25:14;;;;;;;3.22;3.03;;;5.20;99.90;;;;;;4928531;29;20240;-66
2021/12/25 07:27:42;;;;;;;3.75;3.55;;;5.10;99.90;;;;;;4932189;29;20673;-67
2021/12/25 07:30:10;;;;;;;4.07;3.75;;;5.10;99.90;;;;;;4931901;29;20287;-68
2021/12/25 07:32:39;;;;;;;3.60;3.30;;;5.20;99.90;;;;;;4931993;29;20203;-68
2021/12/25 07:35:07;;;;;;;3.40;3.20;;;5.10;99.90;;;;;;4932437;29;20219;-67
2021/12/25 07:37:35;;;;;;;3.40;3.10;;;5.00;99.90;;;;;;4931982;29;20220;-69
2021/12/25 07:40:06;;;;;;;3.65;3.35;;;4.90;99.90;;;;;;4931900;29;20303;-67
2021/12/25 07:42:35;;;;;;;3.15;2.95;;;4.90;99.90;;;;;;4930219;29;20578;-68
2021/12/25 07:45:06;;;;;;;4.13;3.78;;;4.90;99.90;;;;;;4926406;29;20315;-69
2021/12/25 07:47:39;;;;;;;4.00;3.70;;;4.80;99.90;;;;;;4926537;29;20199;-69
2021/12/25 07:50:09;;;;;;;3.85;3.55;;;4.70;99.90;;;;;;4925493;29;20718;-68
2021/12/25 07:52:36;;;;;;;3.47;3.20;;;4.80;99.90;;;;;;4925489;29;20232;-67
2021/12/25 07:55:05;;;;;;;4.28;3.97;;;4.80;99.90;;;;;;4918569;29;20709;-68
2021/12/25 07:57:34;;;;;;;4.13;3.83;;;4.80;99.90;;;;;;4922045;29;20708;-67
2021/12/25 08:00:03;;;;;;;3.95;3.65;;;4.70;99.90;;;;;;4931829;29;20326;-67
2021/12/25 08:02:30;;;;;;;3.53;3.33;;;4.70;99.90;;;;;;4930524;29;20700;-67
2021/12/25 08:04:58;;;;;;;4.22;3.92;;;4.60;99.90;;;;;;4923526;29;20228;-68
2021/12/25 08:07:29;;;;;;;3.88;3.60;;;4.50;99.90;;;;;;4915376;29;20211;-68
2021/12/25 08:10:11;;;;;;;5.00;4.50;;;4.50;99.90;;;;;;4914170;29;20728;-68
2021/12/25 08:12:42;;;;;;;3.20;3.00;;;4.50;99.90;;;;;;4926385;29;20677;-68
2021/12/25 08:15:11;;;;;;;3.70;3.40;;;4.50;99.90;;;;;;4926845;29;20224;-68
2021/12/25 08:17:39;;;;;;;3.42;3.22;;;4.60;99.90;;;;;;4919288;29;20204;-67
2021/12/25 08:20:08;;;;;;;3.55;3.35;;;4.60;99.90;;;;;;4922978;29;20616;-67
2021/12/25 08:22:36;;;;;;;3.38;3.17;;;4.60;99.90;;;;;;4919691;29;20280;-67
2021/12/25 08:25:05;;;;;;;3.65;3.28;;;4.50;99.90;;;;;;4922566;29;20230;-68
2021/12/25 08:27:34;;;;;;;3.63;3.33;;;4.30;99.90;;;;;;4916962;29;20220;-68
2021/12/25 08:30:06;;;;;;;3.10;2.90;;;4.40;99.90;;;;;;4915163;29;20231;-67
2021/12/25 08:32:34;;;;;;;3.25;3.05;;;4.40;99.90;;;;;;4924277;29;20216;-68
2021/12/25 08:35:02;;;;;;;2.63;2.42;;;4.40;99.90;;;;;;4933413;29;20282;-68
2021/12/25 08:37:31;;;;;;;2.78;2.58;;;4.30;99.90;;;;;;4933400;29;20278;-67
2021/12/25 08:39:59;;;;;;;2.83;2.63;;;4.20;99.90;;;;;;4933403;29;20216;-68
2021/12/25 08:42:27;;;;;;;3.80;3.50;;;4.30;99.90;;;;;;4916547;29;20225;-67
2021/12/25 08:45:06;;;;;;;3.00;2.80;;;4.40;99.90;;;;;;4917061;29;20231;-68
2021/12/25 08:47:37;;;;;;;5.13;2.92;;;4.40;99.90;;;;;;4927965;29;20267;-69
2021/12/25 08:50:10;;;;;;;3.20;3.00;;;4.40;99.90;;;;;;4925684;29;20930;-68
2021/12/25 08:52:38;;;;;;;2.20;2.10;;;4.40;99.90;;;;;;4920634;29;20229;-68
2021/12/25 08:55:07;;;;;;;2.08;1.98;;;4.30;99.90;;;;;;4925849;29;20235;-67
2021/12/25 08:57:34;;;;;;;1.70;1.60;;;4.30;99.90;;;;;;4917317;29;20235;-69
2021/12/25 09:00:03;;;;;;;1.73;1.63;;;4.30;99.90;;;;;;4916425;29;20315;-68
2021/12/25 09:02:31;;;;;;;1.70;1.60;;;4.30;99.90;;;;;;4922170;29;20212;-68
2021/12/25 09:05:00;;;;;;;1.00;1.00;;;4.30;99.90;;;;;;4933259;29;20218;-69
2021/12/25 09:07:28;;;;;;;1.45;1.35;;;4.30;99.90;;;;;;4936064;29;20693;-68
2021/12/25 09:09:56;;;;;;;1.15;1.05;;;4.30;99.90;;;;;;4933359;29;20267;-69
2021/12/25 09:12:25;;;;;;;1.15;1.05;;;4.30;99.90;;;;;;4927383;29;20227;-69
2021/12/25 09:14:53;;;;;;;1.40;1.30;;;4.30;99.90;;;;;;4936413;29;20282;-68
2021/12/25 09:17:21;;;;;;;1.02;1.02;;;4.20;99.90;;;;;;4922983;29;20646;-68
2021/12/25 09:19:49;;;;;;;1.70;1.60;;;4.30;99.90;;;;;;4934106;29;20227;-68
2021/12/25 09:22:19;;;;;;;1.45;1.35;;;4.30;99.90;;;;;;4936213;29;20235;-68
2021/12/25 09:24:47;;;;;;;1.40;1.30;;;4.30;99.90;;;;;;4936317;29;20250;-68
2021/12/25 09:27:15;;;;;;;1.30;1.20;;;4.40;99.90;;;;;;4933287;29;20251;-67
2021/12/25 09:29:42;;;;;;;1.08;0.98;;;4.30;99.90;;;;;;4935546;29;20246;-68
2021/12/25 09:32:10;;;;;;;0.80;0.80;;;4.30;99.90;;;;;;4935754;29;20212;-68
2021/12/25 09:34:38;;;;;;;1.40;1.30;;;4.30;99.90;;;;;;4935419;29;20283;-68
2021/12/25 09:37:06;;;;;;;0.93;0.93;;;4.30;99.90;;;;;;4936370;29;20239;-68
2021/12/25 09:39:36;;;;;;;0.90;0.90;;;4.30;99.90;;;;;;4936693;29;20751;-66
2021/12/25 09:42:05;;;;;;;1.38;1.27;;;4.30;99.90;;;;;;4940203;29;20223;-68
2021/12/25 09:44:33;;;;;;;1.30;1.20;;;4.30;99.90;;;;;;4923723;29;20196;-68
2021/12/25 09:47:02;;;;;;;1.25;1.10;;;4.20;99.90;;;;;;4928400;29;20659;-68
2021/12/25 09:49:30;;;;;;;0.80;0.80;;;4.30;99.90;;;;;;4931488;29;20669;-67
2021/12/25 09:51:58;;;;;;;0.90;0.90;;;4.20;99.90;;;;;;4932954;29;20235;-67
2021/12/25 09:54:28;;;;;;;1.13;0.90;;;4.20;99.90;;;;;;4935316;29;20299;-66
2021/12/25 09:56:58;;;;;;;2.30;1.00;;;4.20;99.90;;;;;;4920395;29;20673;-67
2021/12/25 09:59:27;;;;;;;0.95;0.95;;;4.20;99.90;;;;;;4925560;29;20227;-67
2021/12/25 10:01:57;;;;;;;1.40;1.30;;;4.20;99.90;;;;;;4935790;29;20231;-67
2021/12/25 10:04:36;;;;;;;1.20;1.10;;;4.20;99.90;;;;;;4934918;29;20196;-67
2021/12/25 10:07:27;;;;;;;1.40;1.30;;;4.20;99.90;;;;;;4935675;29;20667;-66
2021/12/25 10:10:01;;;;;;;1.33;1.23;;;4.10;99.90;;;;;;4935422;29;20311;-66
2021/12/25 10:12:35;;;;;;;1.10;1.00;;;4.10;99.90;;;;;;4929140;29;20208;-66
2021/12/25 10:15:05;;;;;;;1.20;1.10;;;4.00;99.90;;;;;;4916280;29;20708;-67
2021/12/25 10:17:33;;;;;;;1.90;1.20;;;4.00;99.90;;;;;;4925985;29;20570;-66
2021/12/25 10:20:08;;;;;;;1.13;1.02;;;3.90;99.90;;;;;;4936162;29;20290;-68
2021/12/25 10:23:00;;;;;;;1.60;1.50;;;3.90;99.90;;;;;;4929788;29;20653;-68
2021/12/25 10:25:32;;;;;;;1.40;1.30;;;3.90;99.90;;;;;;4928409;29;20216;-68
2021/12/25 10:28:06;;;;;;;1.50;1.40;;;3.80;99.90;;;;;;4950465;29;20243;-68
2021/12/25 10:30:45;;;;;;;2.00;1.90;;;3.70;99.90;;;;;;4935168;29;20258;-68
2021/12/25 10:33:35;;;;;;;2.28;2.17;;;3.70;99.90;;;;;;4918798;29;20196;-67
2021/12/25 10:36:06;;;;;;;1.77;1.67;;;3.70;99.90;;;;;;4920186;29;20753;-69
2021/12/25 10:38:35;;;;;;;1.35;1.25;;;3.70;99.90;;;;;;4934970;29;20238;-68
2021/12/25 10:41:17;;;;;;;1.38;1.27;;;3.70;99.90;;;;;;4932770;29;20282;-67
2021/12/25 10:43:48;;;;;;;1.15;1.10;;;3.70;99.90;;;;;;4930796;29;20702;-69
2021/12/25 10:46:16;;;;;;;2.63;2.05;;;3.60;99.90;;;;;;4915083;29;20227;-67
2021/12/25 10:48:45;;;;;;;2.10;1.98;;;3.70;99.90;;;;;;4930911;29;20257;-67
2021/12/25 10:51:28;;;;;;;2.65;1.77;;;3.70;99.90;;;;;;4934380;29;20219;-68
2021/12/25 10:53:58;;;;;;;1.95;1.85;;;3.70;99.90;;;;;;4936808;29;20609;-69
2021/12/25 10:56:35;;;;;;;1.83;1.73;;;3.60;99.90;;;;;;4934264;29;20211;-69
2021/12/25 10:59:08;;;;;;;1.90;1.80;;;3.60;99.90;;;;;;4934113;29;20251;-70
2021/12/25 11:01:38;;;;;;;2.10;2.00;;;3.50;99.90;;;;;;4934688;29;20203;-69
2021/12/25 11:04:08;;;;;;;1.90;1.80;;;3.50;99.90;;;;;;4934598;29;20599;-70
2021/12/25 11:06:43;;;;;;;2.10;2.00;;;3.40;99.90;;;;;;4934337;29;20224;-70
2021/12/25 11:09:10;;;;;;;1.95;1.85;;;3.30;99.90;;;;;;4934186;29;20254;-70
2021/12/25 11:11:39;;;;;;;2.00;1.90;;;3.30;99.90;;;;;;4934513;29;20200;-69
2021/12/25 11:14:08;;;;;;;1.52;1.42;;;3.30;99.90;;;;;;4934336;29;20227;-70
2021/12/25 11:16:39;;;;;;;1.58;1.48;;;3.30;99.90;;;;;;4929958;29;20290;-69
2021/12/25 11:19:11;;;;;;;2.08;1.98;;;3.20;99.90;;;;;;4926829;29;20290;-69
2021/12/25 11:21:59;;;;;;;1.77;1.67;;;3.20;99.90;;;;;;4934141;29;20231;-69
2021/12/25 11:24:32;;;;;;;2.03;1.92;;;3.20;99.90;;;;;;4934393;29;20220;-69
2021/12/25 11:27:04;;;;;;;1.75;1.65;;;3.20;99.90;;;;;;4934165;29;20641;-69
2021/12/25 11:29:35;;;;;;;2.30;2.20;;;3.20;99.90;;;;;;4934056;29;20267;-69
2021/12/25 11:32:05;;;;;;;2.40;2.30;;;3.10;99.90;;;;;;4934020;29;20736;-70
2021/12/25 11:34:33;;;;;;;1.83;1.73;;;3.10;99.90;;;;;;4934111;29;20247;-70
2021/12/25 11:37:02;;;;;;;2.75;2.55;;;3.00;99.90;;;;;;4933699;29;20227;-69
2021/12/25 11:39:33;;;;;;;3.17;2.97;;;3.00;99.90;;;;;;4933668;29;20315;-69
2021/12/25 11:42:04;;;;;;;3.17;2.97;;;2.90;99.90;;;;;;4934139;29;20234;-69
2021/12/25 11:44:40;;;;;;;3.20;3.00;;;2.90;99.90;;;;;;4934053;29;20224;-69
2021/12/25 11:47:11;;;;;;;3.15;2.95;;;2.90;99.90;;;;;;4933529;29;20306;-69
2021/12/25 11:49:53;;;;;;;3.08;2.88;;;2.90;99.90;;;;;;4949658;29;20227;-70
2021/12/25 11:52:24;;;;;;;3.30;3.00;;;2.80;99.90;;;;;;4934080;29;20223;-70
2021/12/25 11:55:12;;;;;;;3.17;2.58;;;2.80;99.90;;;;;;4934094;29;20227;-70
2021/12/25 11:58:00;;;;;;;2.78;2.63;;;2.70;99.90;;;;;;4933945;29;20275;-69
2021/12/25 12:00:38;;;;;;;3.38;3.17;;;2.70;99.90;;;;;;4933468;29;20232;-69
2021/12/25 12:03:07;;;;;;;3.53;3.33;;;2.70;99.90;;;;;;4933780;29;20608;-69
2021/12/25 12:05:38;;;;;;;3.20;3.00;;;2.60;99.90;;;;;;4933499;29;20283;-69
2021/12/25 12:08:09;;;;;;;2.90;2.80;;;2.60;99.90;;;;;;4918355;29;20322;-70
2021/12/25 12:10:50;;;;;;;3.30;3.10;;;2.60;99.90;;;;;;4918491;29;20648;-68
2021/12/25 12:13:19;;;;;;;4.00;3.70;;;2.60;99.90;;;;;;4918372;29;20205;-66
2021/12/25 12:15:50;;;;;;;3.60;3.30;;;2.50;99.90;;;;;;4918478;29;20235;-69
2021/12/25 12:18:38;;;;;;;3.70;3.50;;;2.40;99.90;;;;;;4929231;29;20241;-69
2021/12/25 12:21:33;;;;;;;3.90;3.70;;;2.50;99.90;;;;;;4923986;29;20307;-70
2021/12/25 12:24:45;;;;;;;3.17;2.97;;;2.50;99.90;;;;;;4937387;29;20287;-70
2021/12/25 12:27:13;;;;;;;3.20;3.00;;;2.40;99.90;;;;;;4937447;29;20228;-70
2021/12/25 12:29:49;;;;;;;3.22;3.08;;;2.40;99.90;;;;;;4937006;29;20311;-70
2021/12/25 12:32:43;;;;;;;4.32;4.03;;;2.30;99.90;;;;;;4937282;29;20259;-70
2021/12/25 12:35:29;;;;;;;3.92;3.72;;;2.30;99.90;;;;;;4937058;29;20239;-69
2021/12/25 12:38:37;;;;;;;3.42;3.22;;;2.30;99.90;;;;;;4937036;29;20283;-69
2021/12/25 12:41:22;;;;;;;3.60;3.40;;;2.30;99.90;;;;;;4934400;29;20263;-70
2021/12/25 12:44:09;;;;;;;4.68;4.38;;;2.20;99.90;;;;;;4936768;29;20224;-69
2021/12/25 12:46:58;;;;;;;3.55;3.35;;;2.10;99.90;;;;;;4937338;29;20633;-68
2021/12/25 12:49:31;;;;;;;3.85;3.63;;;2.20;99.90;;;;;;4925351;29;20723;-68
2021/12/25 12:52:21;;;;;;;4.88;4.57;;;2.10;99.90;;;;;;4934725;29;20226;-71
2021/12/25 12:54:53;;;;;;;4.00;3.80;;;2.10;99.90;;;;;;4936747;29;20192;-69
2021/12/25 12:57:25;;;;;;;4.25;3.95;;;2.10;99.90;;;;;;4936925;29;20283;-68
2021/12/25 12:59:55;;;;;;;3.90;3.63;;;2.10;99.90;;;;;;4936522;29;20334;-69
2021/12/25 13:02:26;;;;;;;4.25;4.05;;;2.00;99.90;;;;;;4936714;29;20270;-72
2021/12/25 13:04:58;;;;;;;4.10;3.90;;;2.00;99.90;;;;;;4936423;29;20390;-68
2021/12/25 13:07:28;;;;;;;3.85;3.65;;;2.00;99.90;;;;;;4936679;29;20211;-68
2021/12/25 13:09:59;;;;;;;4.25;4.05;;;1.90;99.90;;;;;;4936304;29;20256;-69
2021/12/25 13:12:40;;;;;;;4.32;4.03;;;1.90;99.90;;;;;;4936348;29;20308;-68
2021/12/25 13:15:13;;;;;;;4.10;3.85;;;1.90;99.90;;;;;;4936693;29;20223;-68
2021/12/25 13:17:47;;;;;;;4.55;4.25;;;1.80;99.90;;;;;;4935441;29;20238;-68
2021/12/25 13:20:18;;;;;;;4.60;4.30;;;1.90;99.90;;;;;;4929594;29;20731;-68
2021/12/25 13:22:57;;;;;;;4.22;4.03;;;1.80;99.90;;;;;;4936213;29;20204;-68
2021/12/25 13:25:25;;;;;;;4.50;4.20;;;1.90;99.90;;;;;;4936447;29;20231;-68
2021/12/25 13:27:58;;;;;;;3.92;3.72;;;1.90;99.90;;;;;;4936275;29;20291;-69
2021/12/25 13:30:28;;;;;;;4.13;3.92;;;1.90;99.90;;;;;;4936213;29;20219;-66
2021/12/25 13:32:59;;;;;;;4.30;4.10;;;2.00;99.90;;;;;;4936089;29;20227;-69
2021/12/25 13:35:28;;;;;;;4.72;4.43;;;2.00;99.90;;;;;;4935949;29;20196;-69
2021/12/25 13:37:58;;;;;;;4.90;4.70;;;2.00;99.90;;;;;;4935969;29;20231;-65
2021/12/25 13:40:26;;;;;;;4.10;3.90;;;2.10;99.90;;;;;;4935534;29;20305;-68
2021/12/25 13:42:53;;;;;;;3.92;3.72;;;2.10;99.90;;;;;;4935862;29;20227;-69
2021/12/25 13:45:23;;;;;;;4.10;3.90;;;2.00;99.90;;;;;;4935930;29;20205;-68
2021/12/25 13:47:57;;;;;;;4.50;4.30;;;2.00;99.90;;;;;;4933896;29;20220;-68
2021/12/25 13:50:25;;;;;;;3.75;3.55;;;2.00;99.90;;;;;;4930307;29;20259;-68
2021/12/25 13:52:58;;;;;;;5.05;4.65;;;1.90;99.90;;;;;;4935237;29;20204;-68
2021/12/25 13:55:28;;;;;;;4.10;3.88;;;1.90;99.90;;;;;;4936033;29;20291;-68
2021/12/25 13:57:58;;;;;;;3.63;3.42;;;1.80;99.90;;;;;;4936099;29;20192;-68
2021/12/25 14:00:28;;;;;;;4.53;4.22;;;1.80;99.90;;;;;;4935603;29;20330;-67
2021/12/25 14:02:59;;;;;;;4.75;4.45;;;1.80;99.90;;;;;;4935224;29;20196;-68
2021/12/25 14:05:29;;;;;;;5.00;4.70;;;1.80;99.90;;;;;;4935306;29;20235;-69
2021/12/25 14:07:59;;;;;;;3.83;3.63;;;1.70;99.90;;;;;;4935615;29;20196;-69
2021/12/25 14:10:29;;;;;;;4.13;3.90;;;1.70;99.90;;;;;;4935180;29;20776;-68